createdAt,value
2022-10-17T00:00:06.744Z,14.43
2022-10-17T00:01:06.829Z,14.34
2022-10-17T00:02:06.735Z,14.21
2022-10-17T00:03:06.737Z,14.13
2022-10-17T00:04:06.694Z,14.12
2022-10-17T00:05:06.675Z,14.12
2022-10-17T00:06:06.666Z,14.14
2022-10-17T00:07:06.682Z,14.16
2022-10-17T00:08:06.846Z,14.17
2022-10-17T00:09:06.626Z,14.24
2022-10-17T00:10:06.675Z,14.28
2022-10-17T00:11:06.668Z,14.31
2022-10-17T00:12:06.659Z,14.37
2022-10-17T00:13:06.657Z,14.38
2022-10-17T00:14:06.680Z,14.38
2022-10-17T00:15:06.595Z,14.38
2022-10-17T00:16:06.549Z,14.35
2022-10-17T00:17:06.547Z,14.32
2022-10-17T00:18:06.569Z,14.29
2022-10-17T00:19:06.760Z,14.17
2022-10-17T00:20:06.527Z,14.10
2022-10-17T00:21:06.498Z,14.07
2022-10-17T00:22:06.491Z,14.06
2022-10-17T00:23:06.470Z,14.04
2022-10-17T00:24:06.469Z,13.99
2022-10-17T00:25:06.486Z,13.96
2022-10-17T00:26:06.479Z,14.01
2022-10-17T00:27:06.437Z,14.04
2022-10-17T00:28:06.420Z,14.06
2022-10-17T00:29:06.612Z,14.04
2022-10-17T00:30:06.401Z,14.02
2022-10-17T00:31:06.410Z,13.96
2022-10-17T00:32:06.768Z,13.89
2022-10-17T00:33:06.370Z,13.83
2022-10-17T00:34:06.353Z,13.77
2022-10-17T00:35:06.344Z,13.70
2022-10-17T00:36:06.354Z,13.65
2022-10-17T00:37:06.538Z,13.62
2022-10-17T00:38:06.312Z,13.62
2022-10-17T00:39:06.301Z,13.61
2022-10-17T00:40:06.289Z,13.59
2022-10-17T00:41:06.276Z,13.58
2022-10-17T00:42:06.269Z,13.58
2022-10-17T00:43:06.270Z,13.58
2022-10-17T00:44:06.245Z,13.62
2022-10-17T00:45:06.222Z,13.69
2022-10-17T00:46:06.233Z,13.73
2022-10-17T00:47:06.202Z,13.76
2022-10-17T00:48:06.223Z,13.79
2022-10-17T00:49:06.184Z,13.76
2022-10-17T00:50:06.182Z,13.71
2022-10-17T00:51:06.163Z,13.67
2022-10-17T00:52:06.154Z,13.62
2022-10-17T00:53:06.134Z,13.61
2022-10-17T00:54:06.160Z,13.63
2022-10-17T00:55:06.134Z,13.63
2022-10-17T00:56:06.104Z,13.65
2022-10-17T00:57:06.096Z,13.69
2022-10-17T00:58:06.097Z,13.69
2022-10-17T01:00:06.089Z,13.70
2022-10-17T01:01:06.063Z,13.74
2022-10-17T01:02:06.038Z,13.80
2022-10-17T01:03:06.028Z,13.88
2022-10-17T01:04:06.009Z,13.94
2022-10-17T01:05:06.026Z,13.96
2022-10-17T01:06:05.987Z,14.04
2022-10-17T01:07:05.987Z,14.07
2022-10-17T01:08:05.977Z,14.12
2022-10-17T01:09:05.957Z,14.16
2022-10-17T01:10:05.949Z,14.21
2022-10-17T01:11:05.973Z,14.27
2022-10-17T01:12:05.947Z,14.31
2022-10-17T01:13:05.917Z,14.34
2022-10-17T01:14:05.909Z,14.38
2022-10-17T01:15:05.904Z,14.42
2022-10-17T01:16:05.883Z,14.52
2022-10-17T01:17:05.902Z,14.53
2022-10-17T01:18:05.859Z,14.56
2022-10-17T01:19:05.863Z,14.56
2022-10-17T01:20:05.830Z,14.54
2022-10-17T01:21:05.833Z,14.57
2022-10-17T01:22:05.864Z,14.54
2022-10-17T01:23:05.810Z,14.54
2022-10-17T01:24:05.860Z,14.53
2022-10-17T01:25:05.796Z,14.53
2022-10-17T01:26:05.770Z,14.50
2022-10-17T01:27:05.772Z,14.50
2022-10-17T01:28:05.777Z,14.49
2022-10-17T01:29:05.743Z,14.49
2022-10-17T01:30:05.733Z,14.46
2022-10-17T01:31:05.722Z,14.43
2022-10-17T01:32:05.737Z,14.39
2022-10-17T01:33:05.692Z,14.35
2022-10-17T01:34:05.747Z,14.35
2022-10-17T01:35:05.672Z,14.29
2022-10-17T01:36:06.061Z,14.31
2022-10-17T01:37:05.662Z,14.29
2022-10-17T01:38:05.657Z,14.29
2022-10-17T01:39:05.663Z,14.28
2022-10-17T01:40:05.641Z,14.28
2022-10-17T01:41:05.607Z,14.25
2022-10-17T01:42:05.594Z,14.24
2022-10-17T01:43:05.641Z,14.20
2022-10-17T01:44:05.574Z,14.19
2022-10-17T01:45:05.564Z,14.16
2022-10-17T01:46:05.565Z,14.13
2022-10-17T01:47:05.542Z,14.07
2022-10-17T01:48:05.556Z,14.06
2022-10-17T01:49:05.515Z,14.06
2022-10-17T01:50:05.525Z,14.02
2022-10-17T01:51:05.515Z,13.99
2022-10-17T01:52:05.496Z,14.02
2022-10-17T01:53:05.486Z,14.01
2022-10-17T01:54:05.478Z,13.95
2022-10-17T01:55:05.446Z,13.92
2022-10-17T01:56:05.450Z,13.95
2022-10-17T01:57:05.495Z,13.89
2022-10-17T01:58:06.151Z,13.87
2022-10-17T01:59:05.419Z,13.89
2022-10-17T02:00:05.400Z,13.84
2022-10-17T02:01:05.525Z,13.88
2022-10-17T02:02:05.367Z,13.89
2022-10-17T02:03:05.391Z,13.84
2022-10-17T02:04:05.363Z,13.87
2022-10-17T02:05:05.355Z,13.84
2022-10-17T02:06:05.328Z,13.83
2022-10-17T02:07:05.329Z,13.81
2022-10-17T02:08:05.352Z,13.76
2022-10-17T02:09:05.305Z,13.73
2022-10-17T02:10:05.300Z,13.74
2022-10-17T02:11:05.279Z,13.74
2022-10-17T02:12:05.267Z,13.74
2022-10-17T02:13:05.250Z,13.74
2022-10-17T02:14:05.329Z,13.58
2022-10-17T02:15:05.241Z,13.44
2022-10-17T02:16:05.220Z,13.46
2022-10-17T02:17:05.210Z,13.46
2022-10-17T02:18:05.191Z,13.49
2022-10-17T02:19:05.202Z,13.52
2022-10-17T02:20:05.201Z,13.54
2022-10-17T02:21:05.170Z,13.55
2022-10-17T02:22:05.152Z,13.58
2022-10-17T02:23:05.232Z,13.61
2022-10-17T02:24:05.134Z,13.61
2022-10-17T02:25:05.132Z,13.61
2022-10-17T02:26:05.123Z,13.61
2022-10-17T02:27:05.101Z,13.61
2022-10-17T02:28:05.093Z,13.58
2022-10-17T02:29:05.141Z,13.56
2022-10-17T02:30:05.074Z,13.55
2022-10-17T02:31:05.084Z,13.54
2022-10-17T02:32:05.049Z,13.51
2022-10-17T02:33:05.032Z,13.44
2022-10-17T02:34:05.027Z,13.43
2022-10-17T02:35:05.013Z,13.41
2022-10-17T02:36:05.013Z,13.43
2022-10-17T02:37:05.016Z,13.43
2022-10-17T02:38:05.007Z,13.41
2022-10-17T02:39:04.964Z,13.33
2022-10-17T02:40:04.954Z,13.32
2022-10-17T02:41:04.943Z,13.30
2022-10-17T02:42:04.938Z,13.25
2022-10-17T02:43:04.955Z,13.24
2022-10-17T02:44:04.906Z,13.21
2022-10-17T02:45:04.902Z,13.17
2022-10-17T02:46:04.885Z,13.12
2022-10-17T02:47:04.880Z,13.14
2022-10-17T02:48:04.887Z,13.15
2022-10-17T02:49:04.877Z,13.24
2022-10-17T02:50:04.836Z,13.29
2022-10-17T02:51:04.835Z,13.24
2022-10-17T02:52:04.807Z,13.24
2022-10-17T02:53:04.818Z,13.24
2022-10-17T02:54:04.798Z,13.22
2022-10-17T02:55:04.818Z,13.20
2022-10-17T02:56:04.768Z,13.20
2022-10-17T02:57:04.760Z,13.20
2022-10-17T02:58:04.759Z,13.18
2022-10-17T02:59:04.742Z,13.17
2022-10-17T03:00:04.723Z,13.15
2022-10-17T03:01:04.829Z,13.12
2022-10-17T03:02:04.710Z,13.17
2022-10-17T03:03:04.713Z,13.18
2022-10-17T03:04:04.679Z,13.17
2022-10-17T03:05:04.670Z,13.17
2022-10-17T03:06:04.661Z,13.17
2022-10-17T03:07:04.661Z,13.18
2022-10-17T03:08:04.630Z,13.18
2022-10-17T03:09:04.635Z,13.21
2022-10-17T03:10:04.622Z,13.24
2022-10-17T03:11:04.604Z,13.27
2022-10-17T03:12:04.618Z,13.25
2022-10-17T03:13:04.580Z,13.29
2022-10-17T03:14:04.611Z,13.29
2022-10-17T03:15:04.551Z,13.29
2022-10-17T03:16:04.552Z,13.29
2022-10-17T03:17:04.532Z,13.27
2022-10-17T03:18:04.542Z,13.27
2022-10-17T03:19:04.513Z,13.30
2022-10-17T03:20:04.523Z,13.27
2022-10-17T03:21:04.495Z,13.27
2022-10-17T03:22:04.486Z,13.22
2022-10-17T03:23:04.453Z,13.25
2022-10-17T03:24:04.492Z,13.27
2022-10-17T03:25:04.437Z,13.25
2022-10-17T03:26:04.423Z,13.27
2022-10-17T03:27:04.415Z,13.29
2022-10-17T03:28:04.404Z,13.25
2022-10-17T03:29:04.467Z,13.25
2022-10-17T03:30:04.556Z,13.27
2022-10-17T03:31:04.374Z,13.33
2022-10-17T03:32:04.365Z,13.29
2022-10-17T03:33:04.345Z,13.29
2022-10-17T03:34:04.348Z,13.29
2022-10-17T03:35:04.370Z,13.27
2022-10-17T03:36:04.316Z,13.29
2022-10-17T03:37:04.306Z,13.29
2022-10-17T03:38:04.295Z,13.30
2022-10-17T03:39:04.329Z,13.30
2022-10-17T03:40:04.270Z,13.27
2022-10-17T03:41:04.292Z,13.27
2022-10-17T03:42:04.252Z,13.25
2022-10-17T03:43:04.236Z,13.25
2022-10-17T03:44:04.229Z,13.24
2022-10-17T03:45:04.210Z,13.24
2022-10-17T03:46:04.271Z,13.22
2022-10-17T03:47:04.753Z,13.22
2022-10-17T03:48:04.174Z,13.24
2022-10-17T03:49:04.216Z,13.22
2022-10-17T03:50:04.149Z,13.22
2022-10-17T03:51:04.133Z,13.24
2022-10-17T03:52:04.134Z,13.25
2022-10-17T03:53:04.160Z,13.24
2022-10-17T03:54:04.112Z,13.25
2022-10-17T03:55:04.108Z,13.25
2022-10-17T03:56:04.079Z,13.24
2022-10-17T03:57:04.070Z,13.25
2022-10-17T03:58:04.088Z,13.25
2022-10-17T03:59:04.061Z,13.25
2022-10-17T04:00:04.264Z,13.25
2022-10-17T04:01:04.046Z,13.25
2022-10-17T04:02:04.020Z,13.22
2022-10-17T04:03:04.050Z,13.22
2022-10-17T04:04:04.041Z,13.21
2022-10-17T04:05:03.973Z,13.24
2022-10-17T04:06:03.968Z,13.24
2022-10-17T04:07:03.963Z,13.25
2022-10-17T04:08:04.885Z,13.27
2022-10-17T04:09:03.950Z,13.27
2022-10-17T04:10:04.074Z,13.27
2022-10-17T04:11:03.941Z,13.25
2022-10-17T04:12:03.937Z,13.24
2022-10-17T04:13:03.945Z,13.22
2022-10-17T04:14:03.892Z,13.22
2022-10-17T04:15:03.906Z,13.21
2022-10-17T04:16:03.919Z,13.22
2022-10-17T04:17:03.843Z,13.21
2022-10-17T04:19:03.823Z,13.21
2022-10-17T04:20:03.810Z,13.20
2022-10-17T04:21:03.814Z,13.18
2022-10-17T04:22:03.926Z,13.18
2022-10-17T04:23:03.774Z,13.18
2022-10-17T04:24:03.765Z,13.20
2022-10-17T04:25:03.831Z,13.18
2022-10-17T04:26:03.759Z,13.18
2022-10-17T04:27:03.735Z,13.20
2022-10-17T04:28:03.733Z,13.17
2022-10-17T04:29:03.735Z,13.15
2022-10-17T04:30:03.691Z,13.15
2022-10-17T04:31:03.689Z,13.14
2022-10-17T04:32:03.711Z,13.14
2022-10-17T04:33:03.698Z,13.15
2022-10-17T04:34:03.678Z,13.15
2022-10-17T04:35:03.638Z,13.17
2022-10-17T04:36:03.656Z,13.14
2022-10-17T04:37:03.625Z,13.14
2022-10-17T04:38:03.599Z,13.12
2022-10-17T04:39:03.755Z,13.12
2022-10-17T04:40:03.595Z,13.11
2022-10-17T04:41:03.579Z,13.09
2022-10-17T04:42:03.559Z,13.07
2022-10-17T04:43:03.550Z,13.06
2022-10-17T04:44:03.540Z,13.03
2022-10-17T04:45:03.587Z,13.06
2022-10-17T04:46:03.525Z,13.07
2022-10-17T04:47:03.508Z,13.07
2022-10-17T04:48:03.493Z,13.07
2022-10-17T04:49:03.490Z,13.06
2022-10-17T04:50:03.463Z,13.04
2022-10-17T04:51:03.491Z,13.03
2022-10-17T04:52:03.440Z,13.02
2022-10-17T04:53:03.445Z,13.00
2022-10-17T04:54:03.432Z,13.02
2022-10-17T04:55:03.414Z,13.02
2022-10-17T04:56:03.448Z,12.97
2022-10-17T04:57:03.387Z,12.95
2022-10-17T04:58:03.418Z,12.95
2022-10-17T04:59:03.368Z,12.93
2022-10-17T05:00:03.444Z,12.96
2022-10-17T05:01:03.432Z,13.00
2022-10-17T05:02:03.361Z,13.00
2022-10-17T05:03:03.339Z,13.03
2022-10-17T05:04:03.323Z,13.04
2022-10-17T05:05:03.292Z,13.04
2022-10-17T05:06:03.297Z,13.04
2022-10-17T05:07:03.263Z,13.00
2022-10-17T05:08:03.312Z,12.99
2022-10-17T05:09:03.248Z,12.95
2022-10-17T05:10:03.233Z,12.92
2022-10-17T05:11:03.257Z,12.88
2022-10-17T05:12:04.415Z,12.89
2022-10-17T05:13:03.265Z,12.96
2022-10-17T05:14:03.195Z,12.97
2022-10-17T05:15:03.186Z,12.96
2022-10-17T05:16:03.196Z,12.96
2022-10-17T05:17:03.155Z,12.93
2022-10-17T05:18:03.155Z,12.93
2022-10-17T05:19:03.179Z,12.92
2022-10-17T05:20:03.125Z,12.89
2022-10-17T05:21:03.115Z,12.89
2022-10-17T05:22:03.125Z,12.93
2022-10-17T05:23:03.087Z,13.03
2022-10-17T05:24:03.104Z,13.12
2022-10-17T05:25:03.098Z,13.18
2022-10-17T05:26:03.079Z,13.21
2022-10-17T05:27:03.037Z,13.24
2022-10-17T05:28:03.062Z,13.27
2022-10-17T05:29:03.156Z,13.30
2022-10-17T05:30:03.038Z,13.43
2022-10-17T05:31:02.997Z,13.51
2022-10-17T05:32:03.049Z,13.55
2022-10-17T05:33:02.986Z,13.58
2022-10-17T05:34:02.971Z,13.61
2022-10-17T05:35:02.959Z,13.61
2022-10-17T05:36:03.036Z,13.70
2022-10-17T05:37:02.929Z,13.73
2022-10-17T05:38:02.924Z,13.76
2022-10-17T05:39:02.934Z,13.76
2022-10-17T05:40:02.919Z,13.77
2022-10-17T05:41:02.906Z,13.76
2022-10-17T05:42:02.908Z,13.77
2022-10-17T05:43:02.869Z,13.92
2022-10-17T05:44:05.387Z,14.01
2022-10-17T05:45:02.895Z,13.98
2022-10-17T05:46:02.820Z,13.92
2022-10-17T05:47:02.837Z,13.88
2022-10-17T05:48:02.847Z,13.89
2022-10-17T05:49:14.755Z,13.88
2022-10-17T05:50:03.792Z,13.87
2022-10-17T05:51:02.773Z,13.83
2022-10-17T05:52:02.781Z,13.79
2022-10-17T05:53:02.838Z,13.73
2022-10-17T05:54:02.763Z,13.74
2022-10-17T05:55:02.771Z,13.74
2022-10-17T05:56:02.787Z,13.76
2022-10-17T05:57:03.673Z,13.76
2022-10-17T05:58:02.766Z,13.77
2022-10-17T05:59:02.826Z,13.74
2022-10-17T06:00:02.718Z,13.77
2022-10-17T06:01:02.826Z,13.76
2022-10-17T06:02:02.859Z,13.73
2022-10-17T06:03:02.671Z,13.71
2022-10-17T06:04:03.581Z,13.71
2022-10-17T06:05:02.908Z,13.71
2022-10-17T06:06:02.681Z,13.71
2022-10-17T06:07:02.817Z,13.71
2022-10-17T06:08:02.655Z,13.73
2022-10-17T06:09:02.579Z,13.71
2022-10-17T06:10:02.664Z,13.73
2022-10-17T06:11:06.067Z,13.76
2022-10-17T06:12:03.564Z,13.74
2022-10-17T06:13:02.576Z,13.73
2022-10-17T06:14:02.535Z,13.67
2022-10-17T06:15:02.519Z,13.65
2022-10-17T06:16:02.505Z,13.69
2022-10-17T06:17:02.517Z,13.67
2022-10-17T06:18:02.485Z,13.69
2022-10-17T06:19:02.475Z,13.67
2022-10-17T06:20:02.446Z,13.69
2022-10-17T06:21:02.470Z,13.69
2022-10-17T06:22:02.429Z,13.71
2022-10-17T06:23:02.451Z,13.74
2022-10-17T06:24:02.418Z,13.73
2022-10-17T06:25:02.387Z,13.77
2022-10-17T06:26:02.398Z,13.76
2022-10-17T06:27:02.379Z,13.76
2022-10-17T06:28:02.409Z,13.77
2022-10-17T06:29:02.447Z,13.79
2022-10-17T06:30:02.337Z,13.79
2022-10-17T06:31:02.388Z,13.79
2022-10-17T06:32:02.318Z,13.79
2022-10-17T06:33:02.346Z,13.79
2022-10-17T06:34:02.348Z,13.79
2022-10-17T06:35:02.314Z,13.81
2022-10-17T06:36:02.277Z,13.80
2022-10-17T06:37:02.281Z,13.80
2022-10-17T06:38:02.346Z,13.80
2022-10-17T06:39:02.260Z,13.81
2022-10-17T06:40:02.254Z,13.81
2022-10-17T06:41:02.248Z,13.84
2022-10-17T06:42:02.210Z,13.83
2022-10-17T06:43:02.191Z,13.83
2022-10-17T06:44:02.195Z,13.80
2022-10-17T06:45:02.210Z,13.77
2022-10-17T06:46:02.265Z,13.79
2022-10-17T06:47:02.175Z,13.80
2022-10-17T06:48:02.149Z,13.84
2022-10-17T06:49:02.137Z,13.89
2022-10-17T06:50:02.135Z,13.98
2022-10-17T06:51:02.146Z,14.01
2022-10-17T06:52:02.105Z,14.04
2022-10-17T06:53:02.093Z,14.09
2022-10-17T06:54:02.066Z,14.10
2022-10-17T06:56:02.075Z,14.10
2022-10-17T06:57:02.044Z,14.12
2022-10-17T06:58:02.033Z,14.13
2022-10-17T06:59:02.033Z,14.16
2022-10-17T07:00:02.061Z,14.17
2022-10-17T07:01:02.127Z,14.17
2022-10-17T07:02:02.041Z,14.17
2022-10-17T07:03:01.975Z,14.14
2022-10-17T07:04:01.982Z,14.16
2022-10-17T07:05:01.966Z,14.17
2022-10-17T07:06:01.935Z,14.16
2022-10-17T07:07:01.957Z,14.16
2022-10-17T07:08:01.959Z,14.19
2022-10-17T07:09:01.923Z,14.20
2022-10-17T07:10:01.908Z,14.21
2022-10-17T07:11:01.890Z,14.25
2022-10-17T07:12:01.873Z,14.31
2022-10-17T07:13:01.862Z,14.32
2022-10-17T07:14:01.886Z,14.35
2022-10-17T07:15:01.856Z,14.39
2022-10-17T07:16:01.891Z,14.43
2022-10-17T07:17:01.839Z,14.49
2022-10-17T07:18:01.808Z,14.54
2022-10-17T07:19:01.805Z,14.57
2022-10-17T07:20:01.810Z,14.64
2022-10-17T07:21:01.780Z,14.67
2022-10-17T07:22:01.759Z,14.69
2022-10-17T07:23:01.748Z,14.69
2022-10-17T07:24:01.749Z,14.68
2022-10-17T07:25:01.721Z,14.69
2022-10-17T07:26:01.797Z,14.69
2022-10-17T07:27:01.698Z,14.71
2022-10-17T07:28:01.702Z,14.72
2022-10-17T07:29:01.734Z,14.72
2022-10-17T07:30:01.700Z,14.72
2022-10-17T07:31:01.651Z,14.78
2022-10-17T07:32:01.666Z,14.83
2022-10-17T07:33:01.632Z,14.87
2022-10-17T07:34:01.655Z,14.94
2022-10-17T07:35:01.629Z,14.99
2022-10-17T07:36:01.591Z,15.05
2022-10-17T07:37:01.596Z,15.08
2022-10-17T07:38:01.602Z,15.12
2022-10-17T07:39:01.685Z,15.15
2022-10-17T07:40:01.543Z,15.20
2022-10-17T07:41:01.535Z,15.24
2022-10-17T07:42:01.527Z,15.30
2022-10-17T07:43:01.501Z,15.38
2022-10-17T07:44:01.540Z,15.43
2022-10-17T07:45:01.500Z,15.48
2022-10-17T07:46:01.477Z,15.54
2022-10-17T07:47:01.489Z,15.57
2022-10-17T07:48:01.445Z,15.59
2022-10-17T07:49:01.490Z,15.63
2022-10-17T07:50:01.445Z,15.68
2022-10-17T07:51:01.489Z,15.74
2022-10-17T07:52:01.414Z,15.79
2022-10-17T07:53:01.426Z,15.85
2022-10-17T07:54:01.380Z,15.92
2022-10-17T07:55:01.378Z,15.97
2022-10-17T07:56:01.398Z,16.04
2022-10-17T07:57:01.367Z,16.09
2022-10-17T07:58:01.356Z,16.12
2022-10-17T07:59:03.842Z,16.18
2022-10-17T08:00:02.348Z,16.22
2022-10-17T08:02:01.389Z,16.33
2022-10-17T08:03:01.397Z,16.35
2022-10-17T08:04:01.297Z,16.37
2022-10-17T08:05:01.257Z,16.41
2022-10-17T08:06:01.259Z,16.50
2022-10-17T08:07:18.299Z,16.56
2022-10-17T08:08:02.231Z,16.63
2022-10-17T08:09:01.212Z,16.70
2022-10-17T08:10:01.303Z,16.73
2022-10-17T08:11:01.230Z,16.78
2022-10-17T08:12:01.185Z,16.80
2022-10-17T08:13:01.390Z,16.88
2022-10-17T08:14:01.159Z,16.93
2022-10-17T08:15:01.147Z,16.99
2022-10-17T08:16:01.169Z,17.07
2022-10-17T08:17:01.133Z,17.13
2022-10-17T08:18:01.128Z,17.18
2022-10-17T08:19:01.230Z,17.25
2022-10-17T08:20:01.111Z,17.28
2022-10-17T08:21:01.102Z,17.32
2022-10-17T08:22:01.061Z,17.33
2022-10-17T08:23:01.065Z,17.33
2022-10-17T08:24:01.053Z,17.38
2022-10-17T08:25:01.050Z,17.46
2022-10-17T08:26:01.035Z,17.48
2022-10-17T08:27:01.014Z,17.51
2022-10-17T08:28:01.073Z,17.46
2022-10-17T08:29:01.062Z,17.38
2022-10-17T08:30:01.001Z,17.38
2022-10-17T08:31:00.995Z,17.36
2022-10-17T08:32:02.357Z,17.32
2022-10-17T08:33:00.983Z,17.38
2022-10-17T08:34:00.936Z,17.44
2022-10-17T08:35:00.942Z,17.46
2022-10-17T08:36:01.639Z,17.50
2022-10-17T08:37:00.951Z,17.54
2022-10-17T08:38:00.876Z,17.50
2022-10-17T08:39:00.905Z,17.50
2022-10-17T08:40:00.871Z,17.48
2022-10-17T08:41:00.837Z,17.50
2022-10-17T08:42:00.824Z,17.53
2022-10-17T08:43:00.862Z,17.57
2022-10-17T08:44:00.807Z,17.51
2022-10-17T08:45:00.823Z,17.57
2022-10-17T08:46:00.777Z,17.69
2022-10-17T08:47:00.796Z,17.67
2022-10-17T08:48:00.802Z,17.59
2022-10-17T08:49:00.748Z,17.70
2022-10-17T08:50:00.748Z,17.71
2022-10-17T08:51:00.758Z,17.71
2022-10-17T08:52:00.736Z,17.76
2022-10-17T08:53:00.744Z,17.81
2022-10-17T08:54:00.723Z,17.85
2022-10-17T08:55:00.702Z,17.91
2022-10-17T08:56:00.690Z,17.92
2022-10-17T08:57:00.674Z,17.99
2022-10-17T08:58:00.682Z,18.07
2022-10-17T08:59:00.656Z,18.03
2022-10-17T09:00:00.671Z,18.09
2022-10-17T09:01:00.619Z,18.06
2022-10-17T09:02:00.612Z,18.04
2022-10-17T09:03:00.632Z,18.00
2022-10-17T09:04:00.604Z,18.02
2022-10-17T09:05:00.580Z,18.04
2022-10-17T09:06:00.584Z,18.06
2022-10-17T09:07:00.564Z,18.02
2022-10-17T09:08:00.531Z,18.09
2022-10-17T09:09:00.530Z,18.10
2022-10-17T09:10:00.502Z,18.13
2022-10-17T09:11:00.495Z,18.13
2022-10-17T09:12:00.553Z,18.22
2022-10-17T09:13:05.371Z,18.31
2022-10-17T09:14:01.462Z,18.36
2022-10-17T09:15:00.460Z,18.34
2022-10-17T09:16:00.434Z,18.33
2022-10-17T09:17:00.449Z,18.39
2022-10-17T09:18:00.517Z,18.37
2022-10-17T09:19:00.405Z,18.39
2022-10-17T09:20:00.399Z,18.39
2022-10-17T09:21:00.386Z,18.44
2022-10-17T09:22:00.374Z,18.47
2022-10-17T09:23:00.444Z,18.55
2022-10-17T09:24:09.206Z,18.57
2022-10-17T09:25:01.395Z,18.55
2022-10-17T09:26:00.324Z,18.61
2022-10-17T09:27:00.317Z,18.64
2022-10-17T09:28:00.316Z,18.62
2022-10-17T09:29:00.339Z,18.68
2022-10-17T09:30:00.299Z,18.76
2022-10-17T09:31:00.269Z,18.84
2022-10-17T09:32:00.250Z,18.84
2022-10-17T09:33:00.282Z,18.87
2022-10-17T09:34:00.298Z,18.92
2022-10-17T09:35:00.229Z,19.05
2022-10-17T09:36:00.230Z,19.13
2022-10-17T09:37:00.198Z,19.11
2022-10-17T09:38:00.178Z,19.11
2022-10-17T09:39:00.191Z,19.15
2022-10-17T09:40:00.192Z,19.21
2022-10-17T09:41:00.177Z,19.23
2022-10-17T09:42:00.226Z,19.18
2022-10-17T09:43:00.134Z,19.18
2022-10-17T09:44:00.119Z,19.25
2022-10-17T09:45:00.118Z,19.35
2022-10-17T09:46:00.093Z,19.39
2022-10-17T09:47:00.109Z,19.38
2022-10-17T09:48:01.695Z,19.42
2022-10-17T09:49:00.095Z,19.42
2022-10-17T09:50:00.101Z,19.42
2022-10-17T09:51:14.910Z,19.47
2022-10-17T09:52:01.055Z,19.50
2022-10-17T09:53:00.012Z,19.57
2022-10-17T09:54:00.043Z,19.66
2022-10-17T09:54:59.995Z,19.66
2022-10-17T09:56:00.060Z,19.69
2022-10-17T09:56:59.974Z,19.72
2022-10-17T09:57:59.965Z,19.78
2022-10-17T09:58:59.954Z,19.73
2022-10-17T10:00:00.012Z,19.72
2022-10-17T10:00:59.940Z,19.72
2022-10-17T10:01:59.915Z,19.78
2022-10-17T10:02:59.908Z,19.84
2022-10-17T10:03:59.926Z,19.88
2022-10-17T10:05:05.173Z,19.95
2022-10-17T10:06:00.887Z,19.90
2022-10-17T10:06:59.881Z,19.80
2022-10-17T10:07:59.851Z,19.90
2022-10-17T10:08:59.867Z,19.93
2022-10-17T10:09:59.839Z,19.98
2022-10-17T10:10:59.819Z,20.06
2022-10-17T10:11:59.806Z,20.15
2022-10-17T10:12:59.789Z,20.24
2022-10-17T10:13:59.792Z,20.30
2022-10-17T10:14:59.801Z,20.34
2022-10-17T10:15:59.760Z,20.34
2022-10-17T10:16:59.750Z,20.34
2022-10-17T10:17:59.738Z,20.28
2022-10-17T10:18:59.730Z,20.21
2022-10-17T10:19:59.720Z,20.23
2022-10-17T10:20:59.733Z,20.30
2022-10-17T10:21:59.691Z,20.28
2022-10-17T10:22:59.691Z,20.35
2022-10-17T10:23:59.684Z,20.47
2022-10-17T10:24:59.672Z,20.50
2022-10-17T10:25:59.684Z,20.58
2022-10-17T10:26:59.655Z,20.62
2022-10-17T10:28:01.369Z,20.62
2022-10-17T10:28:59.766Z,20.62
2022-10-17T10:29:59.608Z,20.68
2022-10-17T10:30:59.595Z,20.69
2022-10-17T10:31:59.626Z,20.58
2022-10-17T10:32:59.575Z,20.69
2022-10-17T10:33:59.579Z,20.71
2022-10-17T10:34:59.573Z,20.62
2022-10-17T10:35:59.544Z,20.56
2022-10-17T10:36:59.544Z,20.58
2022-10-17T10:37:59.544Z,20.66
2022-10-17T10:39:02.386Z,20.71
2022-10-17T10:40:00.494Z,20.66
2022-10-17T10:40:59.486Z,20.71
2022-10-17T10:41:59.475Z,20.80
2022-10-17T10:43:02.621Z,20.77
2022-10-17T10:44:00.516Z,20.80
2022-10-17T10:44:59.463Z,20.83
2022-10-17T10:45:59.430Z,20.79
2022-10-17T10:46:59.438Z,20.66
2022-10-17T10:47:59.409Z,20.68
2022-10-17T10:48:59.400Z,20.71
2022-10-17T10:49:59.407Z,20.69
2022-10-17T10:50:59.370Z,20.71
2022-10-17T10:51:59.360Z,20.69
2022-10-17T10:52:59.361Z,20.68
2022-10-17T10:53:59.348Z,20.62
2022-10-17T10:54:59.324Z,20.65
2022-10-17T10:55:59.370Z,20.68
2022-10-17T10:56:59.302Z,20.71
2022-10-17T10:57:59.313Z,20.68
2022-10-17T10:58:59.282Z,20.72
2022-10-17T10:59:59.272Z,20.76
2022-10-17T11:00:59.316Z,20.72
2022-10-17T11:01:59.271Z,20.71
2022-10-17T11:03:01.242Z,20.72
2022-10-17T11:03:59.222Z,20.76
2022-10-17T11:04:59.222Z,20.69
2022-10-17T11:05:59.192Z,20.71
2022-10-17T11:06:59.212Z,20.69
2022-10-17T11:07:59.183Z,20.77
2022-10-17T11:08:59.174Z,20.80
2022-10-17T11:09:59.152Z,20.86
2022-10-17T11:10:59.139Z,20.89
2022-10-17T11:11:59.134Z,20.96
2022-10-17T11:12:59.137Z,21.02
2022-10-17T11:13:59.135Z,21.06
2022-10-17T11:14:59.096Z,21.14
2022-10-17T11:15:59.085Z,21.21
2022-10-17T11:16:59.077Z,21.24
2022-10-17T11:17:59.065Z,21.24
2022-10-17T11:18:59.100Z,21.29
2022-10-17T11:19:59.075Z,21.32
2022-10-17T11:20:59.038Z,21.29
2022-10-17T11:21:59.017Z,21.29
2022-10-17T11:22:59.020Z,21.32
2022-10-17T11:23:59.017Z,21.36
2022-10-17T11:24:59.010Z,21.23
2022-10-17T11:25:58.967Z,21.27
2022-10-17T11:26:58.960Z,21.35
2022-10-17T11:28:04.429Z,21.48
2022-10-17T11:29:00.007Z,21.59
2022-10-17T11:29:59.001Z,21.64
2022-10-17T11:30:58.926Z,21.69
2022-10-17T11:31:58.910Z,21.76
2022-10-17T11:32:58.912Z,21.74
2022-10-17T11:33:58.880Z,21.72
2022-10-17T11:34:58.880Z,21.75
2022-10-17T11:35:59.000Z,21.81
2022-10-17T11:36:58.861Z,21.90
2022-10-17T11:37:58.861Z,21.92
2022-10-17T11:38:58.874Z,21.76
2022-10-17T11:39:58.888Z,21.75
2022-10-17T11:40:58.842Z,21.75
2022-10-17T11:42:00.894Z,21.72
2022-10-17T11:42:58.814Z,21.67
2022-10-17T11:43:58.767Z,21.64
2022-10-17T11:44:58.754Z,21.66
2022-10-17T11:45:58.735Z,21.60
2022-10-17T11:46:58.746Z,21.54
2022-10-17T11:47:58.747Z,21.61
2022-10-17T11:48:58.721Z,21.67
2022-10-17T11:49:58.750Z,21.78
2022-10-17T11:52:01.718Z,21.79
2022-10-17T11:52:58.939Z,21.78
2022-10-17T11:53:58.663Z,21.72
2022-10-17T11:54:58.639Z,21.71
2022-10-17T11:55:58.619Z,21.71
2022-10-17T11:56:58.608Z,21.74
2022-10-17T11:57:58.606Z,21.74
2022-10-17T11:58:58.630Z,21.64
2022-10-17T11:59:58.598Z,21.60
2022-10-17T12:00:58.578Z,21.54
2022-10-17T12:01:58.557Z,21.54
2022-10-17T12:02:58.538Z,21.57
2022-10-17T12:03:58.601Z,21.61
2022-10-17T12:04:58.508Z,21.71
2022-10-17T12:05:58.547Z,21.79
2022-10-17T12:06:58.519Z,21.85
2022-10-17T12:07:58.480Z,21.90
2022-10-17T12:08:58.479Z,21.81
2022-10-17T12:10:00.190Z,21.79
2022-10-17T12:10:58.487Z,21.81
2022-10-17T12:11:58.517Z,21.78
2022-10-17T12:12:58.423Z,21.76
2022-10-17T12:14:00.044Z,21.78
2022-10-17T12:14:58.403Z,21.85
2022-10-17T12:15:58.448Z,21.85
2022-10-17T12:16:58.402Z,21.90
2022-10-17T12:17:58.383Z,21.91
2022-10-17T12:18:58.363Z,21.92
2022-10-17T12:19:58.348Z,21.98
2022-10-17T12:20:58.334Z,22.01
2022-10-17T12:21:58.354Z,22.01
2022-10-17T12:22:58.306Z,22.10
2022-10-17T12:23:58.361Z,22.16
2022-10-17T12:24:58.277Z,22.22
2022-10-17T12:26:01.633Z,22.19
2022-10-17T12:26:59.289Z,22.16
2022-10-17T12:27:58.271Z,22.17
2022-10-17T12:28:58.288Z,22.25
2022-10-17T12:29:58.247Z,22.22
2022-10-17T12:30:58.218Z,22.19
2022-10-17T12:31:58.210Z,22.16
2022-10-17T12:33:06.196Z,22.17
2022-10-17T12:33:59.199Z,22.28
2022-10-17T12:34:58.169Z,22.41
2022-10-17T12:35:58.197Z,22.41
2022-10-17T12:36:58.180Z,22.38
2022-10-17T12:37:59.321Z,22.38
2022-10-17T12:38:58.219Z,22.37
2022-10-17T12:39:58.124Z,22.29
2022-10-17T12:40:58.117Z,22.27
2022-10-17T12:41:58.239Z,22.23
2022-10-17T12:42:58.094Z,22.20
2022-10-17T12:43:58.175Z,22.19
2022-10-17T12:44:58.062Z,22.22
2022-10-17T12:45:58.104Z,22.20
2022-10-17T12:46:58.157Z,22.20
2022-10-17T12:47:58.042Z,22.27
2022-10-17T12:48:58.031Z,22.29
2022-10-17T12:49:58.062Z,22.37
2022-10-17T12:51:12.157Z,22.32
2022-10-17T12:51:58.984Z,22.31
2022-10-17T12:52:58.042Z,22.22
2022-10-17T12:53:57.954Z,22.17
2022-10-17T12:55:59.010Z,22.31
2022-10-17T12:56:57.915Z,22.35
2022-10-17T12:57:57.954Z,22.39